weather.gov     
National Weather Service

Terminal Aerodrome Forecast
NWS Homepage
This page is being discontinued on March 12, 2014.
The same data is available at this site. Please update your bookmarks.
Thank you, and we apologize for the inconvenience.
Please send an email to SR-SRH.Webmaster@noaa.gov with any concerns.


Current Version
Previous Version:    01  02  03  04  05  06  07  08  09  10  11  12  13  14  15  16  17  18  19  20  21  22  23  24  25  26  27  28  29  30  
   31  32  33  34  35  36  37  38  39  
[Printable]
159
FTUS41 KILN 011700
TAFLUK
TAF
KLUK 011740Z 0118/0218 22012G20KT 3SM -SHRA VCTS BKN035CB
     FM011900 22012G20KT P6SM VCSH SCT025 BKN035
     FM012100 22012G20KT P6SM VCTS BKN035CB OVC250
     FM012300 22007KT P6SM VCSH BKN040 OVC120
     FM020800 22004KT P6SM -SHRA VCTS BKN040CB OVC150
     FM021400 22011G22KT 3SM -SHRA VCTS BKN035CB
      TEMPO 0214/0217 2SM -TSRA
     FM021700 25011G21KT P6SM VCSH SCT035 BKN150=


U.S. Dept. of Commerce
NOAA National Weather Service
1325 East West Highway
Silver Spring, MD 20910
E-mail: w-nws.webmaster@noaa.gov
Page last modified: May 16, 2007
NATIONAL WEATHER SERVICE: for Safety, for Work, for Fun - FOR LIFE